createdAt,value
2018-09-08T00:01:07.124Z,4.10
2018-09-08T00:03:35.626Z,3.40
2018-09-08T00:06:04.224Z,3.57
2018-09-08T00:08:32.765Z,3.37
2018-09-08T00:11:01.307Z,3.77
2018-09-08T00:13:29.889Z,3.70
2018-09-08T00:16:03.789Z,3.67
2018-09-08T00:18:44.359Z,3.30
2018-09-08T00:21:18.162Z,3.30
2018-09-08T00:23:51.986Z,3.33
2018-09-08T00:26:25.748Z,3.70
2018-09-08T00:29:01.783Z,3.40
2018-09-08T00:31:30.324Z,3.40
2018-09-08T00:33:58.838Z,3.50
2018-09-08T00:36:27.445Z,3.37
2018-09-08T00:38:55.993Z,3.70
2018-09-08T00:41:25.263Z,3.97
2018-09-08T00:43:53.833Z,3.53
2018-09-08T00:46:22.359Z,3.50
2018-09-08T00:48:50.888Z,3.27
2018-09-08T00:51:19.447Z,3.50
2018-09-08T00:53:47.951Z,3.43
2018-09-08T00:56:16.478Z,3.27
2018-09-08T00:59:15.466Z,2.97
2018-09-08T01:01:43.975Z,4.10
2018-09-08T01:04:12.523Z,3.97
2018-09-08T01:06:41.191Z,3.90
2018-09-08T01:09:09.719Z,3.63
2018-09-08T01:11:38.282Z,3.83
2018-09-08T01:14:07.066Z,3.17
2018-09-08T01:16:35.625Z,3.20
2018-09-08T01:19:04.230Z,3.60
2018-09-08T01:21:32.850Z,3.50
2018-09-08T01:24:01.500Z,3.27
2018-09-08T01:26:30.034Z,3.87
2018-09-08T01:28:58.589Z,3.50
2018-09-08T01:31:27.407Z,4.10
2018-09-08T01:33:55.966Z,3.27
2018-09-08T01:36:24.516Z,3.30
2018-09-08T01:38:53.051Z,3.87
2018-09-08T01:41:21.601Z,3.40
2018-09-08T01:43:50.194Z,3.40
2018-09-08T01:46:18.727Z,3.23
2018-09-08T01:48:47.283Z,4.10
2018-09-08T01:51:15.962Z,3.70
2018-09-08T01:53:44.453Z,4.50
2018-09-08T01:56:12.962Z,3.80
2018-09-08T01:58:48.101Z,3.63
2018-09-08T02:01:16.751Z,3.70
2018-09-08T02:03:45.340Z,3.57
2018-09-08T02:06:13.895Z,3.77
2018-09-08T02:08:42.418Z,4.00
2018-09-08T02:11:11.019Z,4.43
2018-09-08T02:13:39.578Z,3.53
2018-09-08T02:16:08.164Z,3.70
2018-09-08T02:18:36.700Z,3.53
2018-09-08T02:21:05.561Z,3.50
2018-09-08T02:23:34.082Z,3.80
2018-09-08T02:26:03.102Z,3.30
2018-09-08T02:28:32.645Z,3.50
2018-09-08T02:31:01.625Z,4.30
2018-09-08T02:33:30.171Z,3.23
2018-09-08T02:35:58.748Z,3.17
2018-09-08T02:38:27.248Z,2.97
2018-09-08T02:40:56.097Z,3.40
2018-09-08T02:43:24.650Z,3.63
2018-09-08T02:45:53.179Z,3.53
2018-09-08T02:48:21.730Z,3.30
2018-09-08T02:50:49.306Z,4.20
2018-09-08T02:53:16.682Z,3.50
2018-09-08T02:55:44.042Z,3.30
2018-09-08T02:58:11.417Z,3.17
2018-09-08T03:00:38.763Z,3.33
2018-09-08T03:03:06.120Z,3.17
2018-09-08T03:05:33.500Z,3.93
2018-09-08T03:08:00.850Z,3.63
2018-09-08T03:10:28.202Z,3.73
2018-09-08T03:12:55.577Z,3.63
2018-09-08T03:15:22.925Z,3.30
2018-09-08T03:17:50.281Z,3.80
2018-09-08T03:20:17.659Z,4.20
2018-09-08T03:22:45.006Z,3.77
2018-09-08T03:25:12.363Z,4.53
2018-09-08T03:27:39.734Z,3.70
2018-09-08T03:30:07.087Z,3.50
2018-09-08T03:32:34.440Z,3.80
2018-09-08T03:35:01.818Z,3.80
2018-09-08T03:37:29.182Z,3.90
2018-09-08T03:39:56.521Z,3.50
2018-09-08T03:42:23.898Z,4.50
2018-09-08T03:44:51.239Z,4.90
2018-09-08T03:47:18.583Z,4.43
2018-09-08T03:49:45.977Z,4.03
2018-09-08T03:52:13.320Z,3.33
2018-09-08T03:54:40.681Z,3.40
2018-09-08T03:57:08.056Z,4.27
2018-09-08T03:59:35.408Z,4.13
2018-09-08T04:02:02.762Z,3.57
2018-09-08T04:04:31.347Z,3.80
2018-09-08T04:06:59.881Z,3.33
2018-09-08T04:09:28.441Z,3.40
2018-09-08T04:11:57.014Z,3.80
2018-09-08T04:14:25.566Z,3.20
2018-09-08T04:16:54.123Z,3.60
2018-09-08T04:19:22.665Z,4.00
2018-09-08T04:21:51.243Z,3.33
2018-09-08T04:24:20.518Z,4.90
2018-09-08T04:26:49.865Z,4.70
2018-09-08T04:29:18.381Z,5.10
2018-09-08T04:31:46.944Z,4.10
2018-09-08T04:34:15.495Z,5.33
2018-09-08T04:36:44.043Z,5.00
2018-09-08T04:39:12.565Z,4.40
2018-09-08T04:41:41.132Z,5.30
2018-09-08T04:44:09.702Z,5.53
2018-09-08T04:46:38.235Z,5.37
2018-09-08T04:49:06.772Z,4.07
2018-09-08T04:51:35.307Z,4.07
2018-09-08T04:54:03.869Z,4.97
2018-09-08T04:56:32.432Z,5.90
2018-09-08T04:59:01.181Z,5.17
2018-09-08T05:01:29.721Z,5.80
2018-09-08T05:03:58.349Z,4.17
2018-09-08T05:06:26.911Z,4.63
2018-09-08T05:08:55.513Z,4.20
2018-09-08T05:11:24.070Z,5.60
2018-09-08T05:13:52.744Z,5.73
2018-09-08T05:16:21.262Z,5.60
2018-09-08T05:18:49.865Z,5.30
2018-09-08T05:21:18.412Z,5.00
2018-09-08T05:23:46.972Z,5.13
2018-09-08T05:26:15.520Z,5.67
2018-09-08T05:28:44.042Z,5.90
2018-09-08T05:31:12.619Z,5.73
2018-09-08T05:33:41.197Z,4.93
2018-09-08T05:36:09.752Z,4.63
2018-09-08T05:38:38.305Z,5.27
2018-09-08T05:41:06.915Z,5.87
2018-09-08T05:43:35.463Z,5.93
2018-09-08T05:46:04.033Z,6.43
2018-09-08T05:48:32.622Z,5.30
2018-09-08T05:51:01.153Z,5.10
2018-09-08T05:53:29.697Z,4.43
2018-09-08T05:55:58.262Z,4.73
2018-09-08T05:58:26.818Z,4.40
2018-09-08T06:00:55.413Z,6.57
2018-09-08T06:03:39.656Z,5.50
2018-09-08T06:06:09.501Z,5.53
2018-09-08T06:08:38.832Z,5.73
2018-09-08T06:11:08.888Z,5.27
2018-09-08T06:13:37.737Z,5.07
2018-09-08T06:16:06.345Z,5.37
2018-09-08T06:18:34.916Z,5.47
2018-09-08T06:21:03.604Z,6.40
2018-09-08T06:23:32.143Z,5.93
2018-09-08T06:26:00.997Z,5.70
2018-09-08T06:28:29.764Z,5.07
2018-09-08T06:30:58.656Z,5.20
2018-09-08T06:33:27.361Z,5.87
2018-09-08T06:35:55.944Z,5.57
2018-09-08T06:38:24.481Z,5.17
2018-09-08T06:40:53.483Z,5.60
2018-09-08T06:43:22.117Z,5.27
2018-09-08T06:45:51.632Z,5.33
2018-09-08T06:48:20.147Z,4.80
2018-09-08T06:50:48.768Z,4.90
2018-09-08T06:53:17.281Z,4.13
2018-09-08T06:55:46.023Z,4.37
2018-09-08T06:58:15.676Z,5.10
2018-09-08T07:00:44.273Z,5.10
2018-09-08T07:03:12.809Z,5.50
2018-09-08T07:05:41.534Z,4.60
2018-09-08T07:08:10.588Z,4.57
2018-09-08T07:10:39.082Z,4.70
2018-09-08T07:13:07.669Z,4.40
2018-09-08T07:15:36.187Z,3.63
2018-09-08T07:18:04.803Z,3.40
2018-09-08T07:20:33.360Z,3.00
2018-09-08T07:23:01.885Z,3.90
2018-09-08T07:25:30.412Z,3.33
2018-09-08T07:27:59.066Z,3.47
2018-09-08T07:30:27.598Z,2.93
2018-09-08T07:32:56.142Z,3.30
2018-09-08T07:35:24.687Z,2.30
2018-09-08T07:37:53.244Z,2.47
2018-09-08T07:40:21.799Z,2.20
2018-09-08T07:42:50.420Z,2.23
2018-09-08T07:45:18.917Z,2.93
2018-09-08T07:47:47.450Z,3.60
2018-09-08T07:50:15.983Z,2.70
2018-09-08T07:52:44.486Z,3.00
2018-09-08T07:55:12.998Z,2.57
2018-09-08T07:57:41.579Z,2.70
2018-09-08T08:00:10.150Z,3.00
2018-09-08T08:02:38.722Z,2.80
2018-09-08T08:05:07.376Z,2.70
2018-09-08T08:07:35.914Z,3.47
2018-09-08T08:10:04.557Z,2.30
2018-09-08T08:12:33.723Z,2.40
2018-09-08T08:15:02.251Z,2.57
2018-09-08T08:17:30.846Z,2.63
2018-09-08T08:19:59.378Z,2.43
2018-09-08T08:22:27.912Z,2.77
2018-09-08T08:24:56.691Z,2.80
2018-09-08T08:27:25.266Z,2.80
2018-09-08T08:29:53.852Z,3.40
2018-09-08T08:32:22.379Z,3.30
2018-09-08T08:34:50.923Z,3.00
2018-09-08T08:37:19.524Z,3.10
2018-09-08T08:39:48.082Z,4.57
2018-09-08T08:42:16.631Z,3.30
2018-09-08T08:44:45.158Z,3.50
2018-09-08T08:47:13.722Z,4.10
2018-09-08T08:49:42.346Z,3.47
2018-09-08T08:52:22.068Z,2.90
2018-09-08T08:54:54.512Z,3.63
2018-09-08T08:57:23.030Z,3.70
2018-09-08T08:59:51.546Z,3.37
2018-09-08T09:02:20.122Z,3.37
2018-09-08T09:04:48.668Z,4.37
2018-09-08T09:07:18.110Z,4.40
2018-09-08T09:09:46.666Z,3.63
2018-09-08T09:12:15.196Z,3.73
2018-09-08T09:14:43.706Z,3.83
2018-09-08T09:17:12.251Z,4.47
2018-09-08T09:19:51.810Z,3.60
2018-09-08T09:22:31.702Z,3.20
2018-09-08T09:25:04.541Z,3.60
2018-09-08T09:27:34.389Z,3.40
2018-09-08T09:30:03.270Z,3.30
2018-09-08T09:32:31.797Z,3.47
2018-09-08T09:35:00.336Z,3.17
2018-09-08T09:37:28.918Z,3.40
2018-09-08T09:39:58.103Z,3.40
2018-09-08T09:42:26.673Z,3.30
2018-09-08T09:45:01.802Z,2.60
2018-09-08T09:47:30.994Z,2.80
2018-09-08T09:49:59.523Z,2.70
2018-09-08T09:52:28.064Z,2.60
2018-09-08T09:54:56.619Z,2.87
2018-09-08T09:57:25.146Z,2.87
2018-09-08T09:59:53.681Z,2.77
2018-09-08T10:02:52.562Z,2.60
2018-09-08T10:05:22.361Z,2.63
2018-09-08T10:07:51.343Z,3.20
2018-09-08T10:10:21.305Z,2.70
2018-09-08T10:12:49.847Z,2.83
2018-09-08T10:15:18.371Z,2.60
2018-09-08T10:17:46.989Z,3.23
2018-09-08T10:20:17.897Z,3.37
2018-09-08T10:22:46.522Z,3.70
2018-09-08T10:25:16.253Z,3.13
2018-09-08T10:27:45.586Z,2.93
2018-09-08T10:30:14.588Z,2.77
2018-09-08T10:32:43.927Z,3.23
2018-09-08T10:35:12.861Z,2.93
2018-09-08T10:37:41.450Z,3.07
2018-09-08T10:40:10.989Z,2.73
2018-09-08T10:42:39.699Z,3.60
2018-09-08T10:45:08.401Z,2.30
2018-09-08T10:47:36.985Z,3.40
2018-09-08T10:50:05.961Z,3.10
2018-09-08T10:52:41.741Z,3.50
2018-09-08T10:55:10.279Z,3.33
2018-09-08T10:57:38.847Z,3.17
2018-09-08T11:00:08.210Z,2.90
2018-09-08T11:02:37.060Z,2.90
2018-09-08T11:05:05.562Z,2.70
2018-09-08T11:07:34.090Z,3.30
2018-09-08T11:10:02.738Z,2.70
2018-09-08T11:12:31.604Z,2.83
2018-09-08T11:15:00.163Z,2.60
2018-09-08T11:17:28.709Z,3.13
2018-09-08T11:19:57.273Z,2.60
2018-09-08T11:22:25.850Z,3.50
2018-09-08T11:24:58.219Z,2.90
2018-09-08T11:27:26.772Z,3.30
2018-09-08T11:29:55.270Z,3.07
2018-09-08T11:32:24.073Z,2.90
2018-09-08T11:34:52.636Z,3.73
2018-09-08T11:37:21.195Z,2.50
2018-09-08T11:39:49.770Z,2.73
2018-09-08T11:42:18.275Z,3.20
2018-09-08T11:44:46.843Z,2.80
2018-09-08T11:47:15.402Z,3.30
2018-09-08T11:49:43.969Z,2.37
2018-09-08T11:52:12.732Z,2.57
2018-09-08T11:54:41.251Z,3.37
2018-09-08T11:57:09.783Z,3.20
2018-09-08T11:59:39.285Z,3.00
2018-09-08T12:02:07.875Z,3.07
2018-09-08T12:04:36.401Z,2.73
2018-09-08T12:07:05.006Z,3.00
2018-09-08T12:09:33.583Z,2.50
2018-09-08T12:12:02.210Z,2.43
2018-09-08T12:14:30.739Z,3.30
2018-09-08T12:16:59.306Z,2.10
2018-09-08T12:19:27.822Z,2.20
2018-09-08T12:21:56.374Z,2.37
2018-09-08T12:24:24.971Z,2.10
2018-09-08T12:26:53.454Z,2.73
2018-09-08T12:29:21.986Z,2.80
2018-09-08T12:31:50.555Z,2.33
2018-09-08T12:34:20.934Z,2.30
2018-09-08T12:36:49.442Z,2.40
2018-09-08T12:39:18.897Z,2.33
2018-09-08T12:41:47.371Z,2.20
2018-09-08T12:44:17.850Z,2.40
2018-09-08T12:46:47.295Z,2.40
2018-09-08T12:49:15.781Z,2.20
2018-09-08T12:51:44.909Z,2.60
2018-09-08T12:54:14.723Z,2.47
2018-09-08T12:56:43.675Z,2.53
2018-09-08T12:59:13.469Z,2.07
2018-09-08T13:01:41.983Z,2.20
2018-09-08T13:04:13.250Z,2.80
2018-09-08T13:06:42.223Z,3.00
2018-09-08T13:09:10.773Z,2.50
2018-09-08T13:11:39.738Z,2.80
2018-09-08T13:14:09.081Z,2.33
2018-09-08T13:16:38.462Z,2.00
2018-09-08T13:19:06.978Z,2.87
2018-09-08T13:21:36.027Z,2.10
2018-09-08T13:24:05.278Z,1.90
2018-09-08T13:26:33.808Z,2.13
2018-09-08T13:29:02.339Z,1.97
2018-09-08T13:31:31.021Z,2.00
2018-09-08T13:34:00.396Z,2.00
2018-09-08T13:36:29.948Z,2.30
2018-09-08T13:39:00.027Z,2.17
2018-09-08T13:41:29.442Z,2.03
2018-09-08T13:43:57.990Z,2.50
2018-09-08T13:46:27.929Z,2.10
2018-09-08T13:48:56.450Z,2.57
2018-09-08T13:51:25.031Z,1.90
2018-09-08T13:53:53.835Z,2.20
2018-09-08T13:56:22.446Z,2.20
2018-09-08T13:58:50.969Z,2.07
2018-09-08T14:01:19.538Z,2.20
2018-09-08T14:03:48.126Z,2.43
2018-09-08T14:06:17.882Z,2.13
2018-09-08T14:08:46.426Z,2.53
2018-09-08T14:11:15.026Z,2.27
2018-09-08T14:13:43.569Z,2.10
2018-09-08T14:16:12.160Z,2.47
2018-09-08T14:18:40.749Z,2.40
2018-09-08T14:21:09.303Z,1.73
2018-09-08T14:23:37.795Z,1.97
2018-09-08T14:26:06.481Z,2.60
2018-09-08T14:28:35.191Z,2.23
2018-09-08T14:31:03.913Z,2.27
2018-09-08T14:33:32.470Z,2.10
2018-09-08T14:36:02.179Z,1.93
2018-09-08T14:38:31.419Z,2.53
2018-09-08T14:40:59.937Z,2.20
2018-09-08T14:43:28.491Z,2.73
2018-09-08T14:45:57.048Z,2.47
2018-09-08T14:48:25.673Z,2.30
2018-09-08T14:50:54.426Z,2.63
2018-09-08T14:53:23.218Z,2.60
2018-09-08T14:55:51.834Z,2.43
2018-09-08T14:58:20.332Z,2.20
2018-09-08T15:00:48.910Z,2.37
2018-09-08T15:03:17.465Z,2.17
2018-09-08T15:05:46.005Z,2.23
2018-09-08T15:08:14.535Z,2.30
2018-09-08T15:10:57.554Z,2.20
2018-09-08T15:13:26.153Z,2.17
2018-09-08T15:15:54.671Z,2.90
2018-09-08T15:18:23.244Z,2.57
2018-09-08T15:20:52.009Z,2.43
2018-09-08T15:23:20.538Z,2.43
2018-09-08T15:25:49.075Z,2.63
2018-09-08T15:28:24.091Z,2.63
2018-09-08T15:30:52.660Z,2.30
2018-09-08T15:33:21.166Z,2.57
2018-09-08T15:35:49.778Z,2.30
2018-09-08T15:38:18.341Z,2.20
2018-09-08T15:40:46.859Z,2.20
2018-09-08T15:43:15.442Z,2.77
2018-09-08T15:45:44.019Z,2.50
2018-09-08T15:48:12.535Z,2.27
2018-09-08T15:50:41.053Z,2.10
2018-09-08T15:53:09.623Z,2.47
2018-09-08T15:55:38.173Z,2.57
2018-09-08T15:58:06.747Z,2.87
2018-09-08T16:00:35.326Z,2.30
2018-09-08T16:03:03.925Z,2.27
2018-09-08T16:05:32.453Z,2.43
2018-09-08T16:08:04.226Z,2.40
2018-09-08T16:10:35.019Z,2.50
2018-09-08T16:13:03.545Z,2.60
2018-09-08T16:15:32.120Z,2.43
2018-09-08T16:18:00.628Z,2.43
2018-09-08T16:20:29.243Z,2.30
2018-09-08T16:22:57.747Z,2.70
2018-09-08T16:25:26.295Z,2.43
2018-09-08T16:27:55.095Z,2.13
2018-09-08T16:30:23.654Z,2.43
2018-09-08T16:32:52.381Z,2.27
2018-09-08T16:35:20.973Z,2.17
2018-09-08T16:37:49.491Z,1.90
2018-09-08T16:40:18.057Z,1.90
2018-09-08T16:42:46.638Z,2.50
2018-09-08T16:45:15.211Z,2.20
2018-09-08T16:47:43.783Z,2.93
2018-09-08T16:50:12.374Z,2.67
2018-09-08T16:52:40.969Z,2.50
2018-09-08T16:55:35.122Z,3.00
2018-09-08T16:58:04.051Z,2.70
2018-09-08T17:00:32.626Z,2.77
2018-09-08T17:03:01.147Z,2.37
2018-09-08T17:05:29.708Z,1.90
2018-09-08T17:07:58.201Z,4.60
2018-09-08T17:10:26.711Z,4.10
2018-09-08T17:12:55.474Z,2.30
2018-09-08T17:15:24.033Z,2.60
2018-09-08T17:17:52.543Z,2.20
2018-09-08T17:20:21.052Z,2.10
2018-09-08T17:22:49.639Z,2.87
2018-09-08T17:25:18.192Z,2.30
2018-09-08T17:27:46.785Z,8.43
2018-09-08T17:30:15.350Z,7.80
2018-09-08T17:32:43.909Z,7.40
2018-09-08T17:35:12.476Z,7.10
2018-09-08T17:37:41.078Z,5.50
2018-09-08T17:40:09.644Z,4.33
2018-09-08T17:42:38.176Z,3.83
2018-09-08T17:45:06.784Z,4.37
2018-09-08T17:47:45.226Z,4.00
2018-09-08T17:50:18.323Z,5.33
2018-09-08T17:52:55.289Z,4.27
2018-09-08T17:55:40.804Z,3.63
2018-09-08T17:58:14.335Z,4.20
2018-09-08T18:00:50.119Z,4.83
2018-09-08T18:03:29.202Z,4.57
2018-09-08T18:05:58.988Z,3.13
2018-09-08T18:08:28.504Z,3.10
2018-09-08T18:10:57.766Z,3.40
2018-09-08T18:13:27.691Z,3.67
2018-09-08T18:15:56.893Z,4.50
2018-09-08T18:18:27.405Z,4.60
2018-09-08T18:20:57.165Z,3.80
2018-09-08T18:23:26.996Z,2.70
2018-09-08T18:25:56.863Z,3.20
2018-09-08T18:28:26.395Z,3.10
2018-09-08T18:30:55.818Z,3.90
2018-09-08T18:33:25.695Z,3.13
2018-09-08T18:35:56.873Z,2.70
2018-09-08T18:38:27.421Z,3.20
2018-09-08T18:40:57.002Z,3.10
2018-09-08T18:43:27.842Z,3.10
2018-09-08T18:45:56.415Z,3.27
2018-09-08T18:48:25.094Z,3.07
2018-09-08T18:50:53.835Z,2.93
2018-09-08T18:53:22.370Z,3.10
2018-09-08T18:55:50.892Z,3.40
2018-09-08T18:58:19.400Z,4.20
2018-09-08T19:00:48.219Z,3.80
2018-09-08T19:03:16.715Z,3.67
2018-09-08T19:05:45.218Z,3.00
2018-09-08T19:08:13.818Z,3.40
2018-09-08T19:10:43.093Z,3.33
2018-09-08T19:13:11.646Z,3.50
2018-09-08T19:15:40.183Z,3.40
2018-09-08T19:18:08.678Z,3.33
2018-09-08T19:20:40.600Z,2.93
2018-09-08T19:23:09.117Z,3.03
2018-09-08T19:25:38.016Z,3.30
2018-09-08T19:28:06.553Z,3.27
2018-09-08T19:30:35.153Z,2.90
2018-09-08T19:33:03.683Z,3.20
2018-09-08T19:35:36.449Z,3.30
2018-09-08T19:38:05.122Z,3.57
2018-09-08T19:40:39.094Z,3.30
2018-09-08T19:43:08.053Z,3.40
2018-09-08T19:45:37.049Z,2.80
2018-09-08T19:48:07.542Z,3.70
2018-09-08T19:50:36.868Z,3.47
2018-09-08T19:53:10.718Z,3.10
2018-09-08T19:55:39.594Z,3.13
2018-09-08T19:58:15.327Z,2.90
2018-09-08T20:00:44.438Z,3.80
2018-09-08T20:03:14.119Z,3.33
2018-09-08T20:05:42.884Z,3.20
2018-09-08T20:08:13.243Z,2.83
2018-09-08T20:10:41.963Z,2.80
2018-09-08T20:13:10.444Z,2.90
2018-09-08T20:15:39.108Z,3.00
2018-09-08T20:18:08.248Z,3.70
2018-09-08T20:20:36.806Z,3.17
2018-09-08T20:23:05.369Z,3.67
2018-09-08T20:25:35.329Z,3.40
2018-09-08T20:28:04.028Z,3.10
2018-09-08T20:30:32.589Z,3.03
2018-09-08T20:33:01.101Z,2.50
2018-09-08T20:35:29.588Z,3.07
2018-09-08T20:37:58.133Z,3.03
2018-09-08T20:40:26.626Z,3.97
2018-09-08T20:42:55.801Z,3.27
2018-09-08T20:45:24.434Z,3.37
2018-09-08T20:47:53.054Z,3.17
2018-09-08T20:50:21.636Z,2.93
2018-09-08T20:52:51.957Z,3.00
2018-09-08T20:55:20.677Z,3.00
2018-09-08T20:57:49.189Z,2.60
2018-09-08T21:00:17.960Z,3.47
2018-09-08T21:02:46.732Z,3.23
2018-09-08T21:05:15.277Z,2.87
2018-09-08T21:07:43.831Z,2.90
2018-09-08T21:10:12.289Z,2.60
2018-09-08T21:12:40.780Z,3.07
2018-09-08T21:15:09.380Z,3.93
2018-09-08T21:17:37.920Z,3.27
2018-09-08T21:20:06.460Z,3.63
2018-09-08T21:22:34.932Z,2.80
2018-09-08T21:25:03.537Z,2.60
2018-09-08T21:27:33.595Z,2.73
2018-09-08T21:30:02.661Z,3.20
2018-09-08T21:32:31.566Z,3.13
2018-09-08T21:35:00.097Z,3.10
2018-09-08T21:37:30.209Z,2.83
2018-09-08T21:39:59.858Z,2.87
2018-09-08T21:42:28.650Z,3.27
2018-09-08T21:44:57.214Z,3.20
2018-09-08T21:47:25.709Z,3.00
2018-09-08T21:49:54.613Z,3.10
2018-09-08T21:52:23.233Z,3.17
2018-09-08T21:54:51.907Z,2.77
2018-09-08T21:57:20.429Z,2.63
2018-09-08T21:59:48.990Z,2.83
2018-09-08T22:02:17.852Z,3.30
2018-09-08T22:04:46.418Z,3.50
2018-09-08T22:07:14.971Z,3.40
2018-09-08T22:09:43.598Z,2.80
2018-09-08T22:12:12.401Z,2.70
2018-09-08T22:14:41.966Z,2.87
2018-09-08T22:17:10.606Z,3.20
2018-09-08T22:19:40.706Z,3.40
2018-09-08T22:22:09.503Z,3.93
2018-09-08T22:24:38.056Z,4.20
2018-09-08T22:27:07.528Z,3.83
2018-09-08T22:29:36.166Z,3.53
2018-09-08T22:32:04.734Z,3.30
2018-09-08T22:34:33.266Z,3.03
2018-09-08T22:37:01.850Z,2.90
2018-09-08T22:39:30.403Z,3.27
2018-09-08T22:41:58.972Z,3.57
2018-09-08T22:44:27.592Z,5.73
2018-09-08T22:46:56.143Z,4.50
2018-09-08T22:49:24.703Z,3.23
2018-09-08T22:51:53.283Z,3.77
2018-09-08T22:54:21.824Z,3.90
2018-09-08T22:56:50.851Z,3.27
2018-09-08T22:59:19.426Z,3.53
2018-09-08T23:01:48.151Z,3.67
2018-09-08T23:04:16.706Z,4.00
2018-09-08T23:06:45.342Z,3.80
2018-09-08T23:09:13.858Z,3.93
2018-09-08T23:11:42.387Z,4.27
2018-09-08T23:14:10.924Z,4.47
2018-09-08T23:16:39.469Z,4.90
2018-09-08T23:19:08.029Z,4.70
2018-09-08T23:21:36.713Z,3.70
2018-09-08T23:24:05.219Z,3.33
2018-09-08T23:26:33.729Z,3.50
2018-09-08T23:29:02.285Z,3.57
2018-09-08T23:31:30.829Z,3.07
2018-09-08T23:33:59.391Z,4.00
2018-09-08T23:36:27.971Z,4.03
2018-09-08T23:38:56.512Z,3.83
2018-09-08T23:41:25.073Z,3.60
2018-09-08T23:43:53.697Z,4.40
2018-09-08T23:46:22.214Z,2.90
2018-09-08T23:48:50.753Z,3.50
2018-09-08T23:51:19.475Z,3.30
2018-09-08T23:53:47.991Z,4.33
2018-09-08T23:56:16.634Z,3.20
2018-09-08T23:58:45.156Z,2.73
